Time;durP1;ratioP1;P1;durP2;ratioP2;P2;SDS_P1;SDS_P2;PMS_P1;PMS_P2;Temp;Humidity;BMP_temperature;BMP_pressure;BME280_temperature;BME280_humidity;BME280_pressure;Samples;Min_cycle;Max_cycle;Signal;HPM_P1;HPM_P2
2021/04/23 00:06:17;;;;;;;12.00;5.93;;;;;;;1.40;68.69;99732.89;469328;1173;115374;-60
2021/04/23 00:16:21;;;;;;;10.55;7.00;;;;;;;1.22;69.64;99726.42;469952;1174;115714;-60
2021/04/23 00:26:25;;;;;;;15.40;7.50;;;;;;;1.07;69.97;99734.55;469649;1167;115815;-58
2021/04/23 00:36:29;;;;;;;14.20;7.90;;;;;;;1.01;70.30;99740.70;469110;1171;115632;-58
2021/04/23 00:46:34;;;;;;;10.80;6.05;;;;;;;0.90;70.57;99750.44;468676;1173;116723;-56
2021/04/23 00:56:40;;;;;;;11.47;6.17;;;;;;;0.79;71.08;99746.34;467998;1173;116362;-59
2021/04/23 01:06:44;;;;;;;10.97;6.60;;;;;;;0.68;71.69;99749.13;468178;1173;115718;-58
2021/04/23 01:16:50;;;;;;;13.73;8.47;;;;;;;0.50;71.27;99749.53;468190;1173;116449;-56
2021/04/23 01:26:57;;;;;;;10.85;6.35;;;;;;;0.41;72.20;99759.16;468500;1173;116058;-58
2021/04/23 01:37:02;;;;;;;11.40;5.95;;;;;;;0.36;72.45;99760.13;468474;1174;115755;-56
2021/04/23 01:47:07;;;;;;;8.60;6.30;;;;;;;0.24;72.67;99754.31;468612;1174;116611;-54
2021/04/23 01:57:11;;;;;;;8.90;6.90;;;;;;;0.25;73.20;99756.02;469343;1173;116209;-55
2021/04/23 02:07:17;;;;;;;11.23;6.07;;;;;;;0.43;73.30;99777.22;468392;1174;116859;-57
2021/04/23 02:17:21;;;;;;;13.23;6.07;;;;;;;0.46;73.83;99778.88;484474;1174;115837;-57
2021/04/23 02:27:26;;;;;;;11.53;6.47;;;;;;;0.53;73.37;99776.16;473567;1173;118952;-55
2021/04/23 02:37:30;;;;;;;12.55;6.35;;;;;;;0.68;73.65;99780.15;469671;1173;115682;-56
2021/04/23 02:47:34;;;;;;;9.50;6.30;;;;;;;0.79;73.39;99777.36;484488;1172;115986;-57
2021/04/23 02:57:38;;;;;;;10.35;6.35;;;;;;;0.76;73.78;99781.73;484456;1173;115972;-57
2021/04/23 03:07:42;;;;;;;7.07;5.93;;;;;;;0.63;74.05;99779.41;481629;1171;116183;-52
2021/04/23 03:17:45;;;;;;;16.00;7.85;;;;;;;0.48;73.72;99777.13;473561;1171;116274;-56
2021/04/23 03:27:49;;;;;;;14.35;6.00;;;;;;;0.39;74.52;99772.97;472535;1170;115721;-54
2021/04/23 03:37:53;;;;;;;17.85;8.25;;;;;;;0.45;74.35;99783.20;471530;1171;115992;-55
2021/04/23 03:47:57;;;;;;;9.50;6.40;;;;;;;0.64;75.07;99799.20;484649;1170;116156;-56
2021/04/23 03:58:03;;;;;;;12.90;6.90;;;;;;;1.00;74.26;99795.90;484360;1171;117489;-56
2021/04/23 04:08:08;;;;;;;13.30;7.50;;;;;;;1.44;74.07;99813.03;485077;1171;115499;-57
2021/04/23 04:18:13;;;;;;;19.17;7.47;;;;;;;2.04;73.81;99818.55;474918;1171;115926;-55
2021/04/23 04:28:18;;;;;;;10.60;5.87;;;;;;;2.58;72.98;99827.50;483961;1171;116704;-56
2021/04/23 04:38:22;;;;;;;10.27;5.87;;;;;;;2.90;72.18;99830.94;480498;1170;115734;-56
2021/04/23 04:48:25;;;;;;;16.05;7.95;;;;;;;3.21;71.63;99837.81;485022;1171;116951;-56
2021/04/23 04:58:31;;;;;;;10.40;6.23;;;;;;;3.59;70.47;99845.34;484307;1171;116294;-57
2021/04/23 05:08:36;;;;;;;20.45;7.60;;;;;;;8.02;69.69;99852.19;479950;1171;116302;-57
2021/04/23 05:18:40;;;;;;;15.10;8.40;;;;;;;13.85;60.03;99854.62;485014;1170;115471;-56
2021/04/23 05:28:43;;;;;;;12.45;7.30;;;;;;;15.44;53.52;99852.31;484327;1170;116434;-56
2021/04/23 05:38:48;;;;;;;11.40;7.30;;;;;;;18.70;49.59;99850.75;485049;1171;115588;-57
2021/04/23 05:48:53;;;;;;;8.05;6.15;;;;;;;21.31;45.07;99852.71;485032;1171;116821;-57
2021/04/23 05:58:57;;;;;;;16.57;6.43;;;;;;;23.77;40.32;99854.31;483620;1171;116083;-57
2021/04/23 06:09:01;;;;;;;12.75;5.50;;;;;;;24.22;35.44;99853.66;469480;1171;117331;-57
2021/04/23 06:19:05;;;;;;;13.67;7.63;;;;;;;26.19;33.97;99850.50;484328;1171;116065;-57
2021/04/23 06:29:09;;;;;;;8.80;6.80;;;;;;;29.57;28.67;99836.36;480142;1170;116371;-58
2021/04/23 06:39:17;;;;;;;11.45;7.10;;;;;;;31.20;27.09;99847.32;485000;1171;115840;-59
2021/04/23 06:49:21;;;;;;;8.50;7.23;;;;;;;32.65;24.54;99836.50;484325;1170;116994;-62
2021/04/23 06:59:24;;;;;;;10.33;7.30;;;;;;;31.43;22.94;99843.92;482250;1170;116122;-66
2021/04/23 07:09:29;;;;;;;10.70;6.00;;;;;;;33.31;22.41;99846.28;475573;1171;115693;-66
2021/04/23 07:19:38;;;;;;;23.20;7.63;;;;;;;36.59;20.07;99839.05;469471;1171;115664;-68
2021/04/23 07:29:42;;;;;;;8.03;5.00;;;;;;;34.83;18.47;99841.05;471736;1171;116605;-66
2021/04/23 07:39:45;;;;;;;7.28;5.20;;;;;;;28.50;20.52;99838.41;469192;1170;116056;-65
2021/04/23 07:49:49;;;;;;;9.10;5.03;;;;;;;28.45;22.14;99830.09;468839;1171;115757;-61
2021/04/23 07:59:55;;;;;;;10.67;6.27;;;;;;;22.14;23.15;99852.85;469399;1171;116281;-62
2021/04/23 08:09:59;;;;;;;15.55;7.63;;;;;;;20.98;26.51;99853.41;458047;1171;20002123;-63
2021/04/23 08:20:05;;;;;;;10.00;7.95;;;;;;;20.20;26.67;99857.73;469724;1173;117995;-63
2021/04/23 08:30:11;;;;;;;9.90;6.25;;;;;;;15.86;29.47;99865.64;469720;1171;115409;-63
2021/04/23 08:40:18;;;;;;;9.50;5.30;;;;;;;14.50;30.13;99877.14;469683;1171;117538;-63
2021/04/23 08:50:25;;;;;;;8.90;4.83;;;;;;;13.84;32.25;99879.30;470378;1170;116412;-62
2021/04/23 09:00:29;;;;;;;6.93;4.53;;;;;;;14.03;32.52;99883.23;470037;1172;116317;-63
2021/04/23 09:10:35;;;;;;;11.53;4.70;;;;;;;13.75;32.41;99871.22;469444;1171;116804;-62
2021/04/23 09:20:42;;;;;;;10.50;4.00;;;;;;;12.78;32.69;99872.67;471063;1171;116465;-62
2021/04/23 09:30:47;;;;;;;8.80;3.70;;;;;;;12.21;32.63;99865.97;470209;1171;115992;-62
2021/04/23 09:40:51;;;;;;;9.05;3.40;;;;;;;11.57;34.69;99860.38;469693;1171;116065;-63
2021/04/23 09:50:55;;;;;;;7.70;3.50;;;;;;;11.62;34.54;99849.56;469810;1171;116830;-62
2021/04/23 10:00:59;;;;;;;3.33;2.47;;;;;;;11.14;34.07;99848.17;469390;1171;116401;-62
2021/04/23 10:11:04;;;;;;;6.60;3.07;;;;;;;12.26;34.22;99845.46;469502;1171;115840;-62
2021/04/23 10:21:08;;;;;;;5.20;2.50;;;;;;;12.64;32.96;99844.64;470563;1171;115441;-63
2021/04/23 10:31:13;;;;;;;2.85;1.60;;;;;;;11.09;33.06;99852.84;470819;1170;116172;-62
2021/04/23 10:41:17;;;;;;;4.00;2.10;;;;;;;8.47;41.10;99949.39;470109;1171;115584;-61
2021/04/23 10:51:27;;;;;;;3.77;1.70;;;;;;;7.59;47.75;99954.42;470200;1171;115941;-62
2021/04/23 11:01:34;;;;;;;2.50;1.70;;;;;;;8.29;46.68;99946.77;469998;1171;115772;-61
2021/04/23 11:11:42;;;;;;;2.75;1.85;;;;;;;8.81;45.78;99906.69;470604;1170;115860;-61
2021/04/23 11:21:47;;;;;;;3.80;1.95;;;;;;;9.02;46.20;99924.84;470671;1171;115461;-62
2021/04/23 11:32:08;;;;;;;5.50;2.20;;;;;;;8.60;46.18;99926.97;462376;1171;10001892;-62
2021/04/23 11:42:21;;;;;;;2.90;2.60;;;;;;;8.43;48.22;99925.17;477409;1171;115500;-63
2021/04/23 11:52:29;;;;;;;2.98;2.40;;;;;;;8.54;47.49;99930.75;478591;1171;116120;-62
2021/04/23 12:02:55;;;;;;;3.03;2.60;;;;;;;8.89;46.14;99934.23;470531;1171;116268;-59
2021/04/23 12:13:00;;;;;;;4.47;2.73;;;;;;;8.85;46.30;99930.09;472027;1171;116414;-61
2021/04/23 12:23:04;;;;;;;2.70;2.40;;;;;;;8.97;45.55;99932.07;485021;1171;115678;-60
2021/04/23 12:33:08;;;;;;;5.05;2.90;;;;;;;9.33;45.07;99917.95;478106;1173;115448;-62
2021/04/23 12:43:17;;;;;;;5.70;2.37;;;;;;;9.14;45.36;99961.80;470131;1171;115505;-62
2021/04/23 12:53:24;;;;;;;3.03;2.20;;;;;;;6.46;51.95;99979.22;475932;1171;116308;-61
2021/04/23 13:03:27;;;;;;;6.10;3.00;;;;;;;5.94;54.95;99993.40;477002;1172;116175;-61
2021/04/23 13:13:40;;;;;;;3.57;2.67;;;;;;;5.84;56.94;100007.69;470944;1171;115914;-62
2021/04/23 13:23:45;;;;;;;6.53;3.57;;;;;;;6.40;57.55;100000.36;479866;1171;116463;-57
2021/04/23 13:33:49;;;;;;;5.17;3.13;;;;;;;7.44;56.45;99993.38;478344;1170;115611;-58
2021/04/23 13:44:06;;;;;;;3.43;2.47;;;;;;;7.34;55.72;100000.78;473925;1170;115732;-59
2021/04/23 13:54:17;;;;;;;4.73;2.47;;;;;;;7.24;54.78;99986.43;471219;1171;119539;-58
2021/04/23 14:04:24;;;;;;;5.50;3.53;;;;;;;7.38;54.04;99984.05;471624;1171;115176;-59
2021/04/23 14:14:32;;;;;;;4.40;2.93;;;;;;;7.52;54.05;99985.22;481716;1171;116376;-61
2021/04/23 14:24:37;;;;;;;4.17;2.63;;;;;;;7.89;52.85;99990.51;471853;1170;115887;-54
2021/04/23 14:34:41;;;;;;;9.17;3.20;;;;;;;7.65;52.90;100002.03;473823;1170;116296;-52
2021/04/23 14:44:44;;;;;;;6.30;2.60;;;;;;;7.22;52.82;100011.77;469785;1171;116220;-55
2021/04/23 14:54:48;;;;;;;2.27;1.70;;;;;;;7.13;52.13;100007.80;469330;1171;115818;-58
2021/04/23 15:04:52;;;;;;;2.93;1.50;;;;;;;6.81;51.63;100012.63;479297;1171;116480;-59
2021/04/23 15:15:03;;;;;;;2.63;1.90;;;;;;;6.64;52.30;100026.37;474480;1171;115501;-58
2021/04/23 15:25:10;;;;;;;2.03;1.23;;;;;;;6.07;54.60;100024.24;455667;1171;20001901;-51
2021/04/23 15:35:17;;;;;;;5.50;1.80;;;;;;;6.51;53.61;100013.82;469935;1171;116430;-56
2021/04/23 15:45:24;;;;;;;5.65;4.30;;;;;;;6.80;52.65;99985.66;469884;1167;117243;-59
2021/04/23 15:55:28;;;;;;;4.53;3.10;;;;;;;6.83;52.76;99998.60;469395;1170;116476;-60
2021/04/23 16:05:32;;;;;;;4.37;2.67;;;;;;;6.83;52.77;100005.57;470709;1170;116353;-60
2021/04/23 16:15:37;;;;;;;5.50;2.85;;;;;;;6.64;53.33;100005.48;470887;1171;116298;-60
2021/04/23 16:25:41;;;;;;;7.33;2.70;;;;;;;6.79;53.37;100009.23;469074;1170;117037;-59
2021/04/23 16:35:45;;;;;;;6.80;3.50;;;;;;;6.74;53.57;100014.64;470150;1173;116149;-61
2021/04/23 16:45:49;;;;;;;5.45;3.80;;;;;;;6.80;53.98;100016.98;470131;1171;116139;-60
2021/04/23 16:55:53;;;;;;;4.00;2.73;;;;;;;6.53;55.03;100011.98;469915;1170;118042;-58
2021/04/23 17:05:56;;;;;;;3.60;2.10;;;;;;;6.06;54.73;100031.23;470086;1171;117696;-58
2021/04/23 17:16:01;;;;;;;9.20;2.67;;;;;;;5.57;55.14;100034.70;469600;1171;116171;-59
2021/04/23 17:26:05;;;;;;;22.50;13.95;;;;;;;5.31;55.92;100033.88;470406;1171;115771;-60
2021/04/23 17:36:10;;;;;;;3.75;1.95;;;;;;;5.15;55.98;100043.98;470251;1171;116937;-59
2021/04/23 17:46:14;;;;;;;4.83;2.47;;;;;;;5.08;56.78;100057.26;468861;1171;118174;-60
2021/04/23 17:56:18;;;;;;;4.50;1.95;;;;;;;4.98;56.67;100080.98;470235;1171;115766;-59
2021/04/23 18:06:23;;;;;;;5.07;2.30;;;;;;;4.92;57.12;100091.61;469896;1171;116408;-57
2021/04/23 18:16:28;;;;;;;4.47;2.87;;;;;;;4.73;58.46;100086.13;469739;1170;115588;-60
2021/04/23 18:26:33;;;;;;;8.90;4.20;;;;;;;4.23;59.51;100092.84;470010;1171;117657;-59
2021/04/23 18:36:42;;;;;;;10.50;4.60;;;;;;;3.85;61.05;100113.00;470081;1171;116110;-60
2021/04/23 18:46:46;;;;;;;80.30;34.83;;;;;;;3.47;62.12;100115.73;469710;1171;116397;-60
2021/04/23 18:56:52;;;;;;;31.80;13.95;;;;;;;3.15;62.87;100123.46;470386;1173;116028;-60
2021/04/23 19:06:56;;;;;;;127.70;56.75;;;;;;;2.86;63.97;100134.55;469927;1171;115748;-63
2021/04/23 19:17:00;;;;;;;19.95;10.35;;;;;;;2.55;64.97;100128.32;469639;1170;151977;-60
2021/04/23 19:27:04;;;;;;;30.70;13.57;;;;;;;2.37;65.71;100132.17;469981;1171;116394;-59
2021/04/23 19:37:07;;;;;;;64.47;26.87;;;;;;;2.42;66.80;100134.63;469069;1171;116435;-59
2021/04/23 19:47:11;;;;;;;27.85;14.95;;;;;;;2.58;66.82;100127.38;470196;1171;116806;-63
2021/04/23 19:57:15;;;;;;;34.60;17.07;;;;;;;2.72;67.29;100112.38;470672;1171;116445;-63
2021/04/23 20:07:21;;;;;;;22.87;11.27;;;;;;;2.73;67.45;100106.30;469412;1171;116719;-61
2021/04/23 20:17:25;;;;;;;18.30;9.65;;;;;;;2.64;67.92;100117.72;469481;1171;116619;-60
2021/04/23 20:27:29;;;;;;;15.40;9.30;;;;;;;2.47;68.30;100112.08;469143;1171;115683;-63
2021/04/23 20:37:33;;;;;;;18.33;10.63;;;;;;;2.27;69.00;100113.35;469725;1171;116411;-60
2021/04/23 20:47:37;;;;;;;15.65;10.40;;;;;;;2.21;69.48;100114.33;470712;1171;116782;-62
2021/04/23 20:57:41;;;;;;;20.13;10.10;;;;;;;2.16;69.88;100112.73;469881;1171;115995;-61
2021/04/23 21:07:45;;;;;;;24.70;9.63;;;;;;;2.12;70.04;100124.88;469123;1171;115799;-61
2021/04/23 21:17:49;;;;;;;16.53;10.33;;;;;;;2.17;70.22;100120.48;469520;1171;115859;-61
2021/04/23 21:27:53;;;;;;;13.75;7.50;;;;;;;2.18;69.78;100113.54;469167;1172;116824;-61
2021/04/23 21:37:57;;;;;;;11.40;7.00;;;;;;;2.03;69.86;100097.44;469266;1171;115848;-61
2021/04/23 21:48:01;;;;;;;12.43;6.90;;;;;;;1.86;70.01;100107.30;461954;1171;10001478;-60
2021/04/23 21:58:06;;;;;;;17.60;9.00;;;;;;;1.85;70.81;100109.02;472830;1171;117212;-59
2021/04/23 22:08:10;;;;;;;9.90;7.23;;;;;;;1.92;70.46;100127.88;472686;1171;116750;-59
2021/04/23 22:18:14;;;;;;;13.50;8.15;;;;;;;1.99;70.46;100123.44;468432;1171;116512;-60
2021/04/23 22:28:18;;;;;;;14.50;8.50;;;;;;;1.98;70.02;100112.23;483095;1171;116748;-58
2021/04/23 22:38:23;;;;;;;14.40;8.37;;;;;;;2.05;69.97;100112.96;476163;1171;116447;-60
2021/04/23 22:48:27;;;;;;;13.63;7.83;;;;;;;2.12;70.06;100109.34;480651;1171;116758;-59
2021/04/23 22:58:31;;;;;;;12.57;7.90;;;;;;;2.09;69.95;100096.45;468397;1171;115936;-58
2021/04/23 23:08:35;;;;;;;12.20;8.35;;;;;;;2.00;69.47;100107.88;484812;1173;116094;-59
2021/04/23 23:18:39;;;;;;;13.93;9.00;;;;;;;1.90;69.20;100109.77;484829;1173;116853;-59
2021/04/23 23:28:42;;;;;;;18.80;10.37;;;;;;;1.75;68.94;100098.01;484173;1171;116638;-58
2021/04/23 23:38:46;;;;;;;13.10;8.60;;;;;;;1.63;68.54;100095.66;484919;1171;117317;-60
2021/04/23 23:48:49;;;;;;;16.47;7.83;;;;;;;1.36;68.76;100095.27;484887;1169;116295;-60
2021/04/23 23:58:53;;;;;;;12.40;7.20;;;;;;;1.09;68.62;100108.64;484209;1171;116263;-58
